createdAt,value
2024-04-05T00:00:56.124Z,20.33
2024-04-05T00:01:56.330Z,20.33
2024-04-05T00:02:56.288Z,20.33
2024-04-05T00:03:56.500Z,20.33
2024-04-05T00:04:56.460Z,20.33
2024-04-05T00:05:56.543Z,20.33
2024-04-05T00:06:56.640Z,20.33
2024-04-05T00:07:56.718Z,20.34
2024-04-05T00:08:56.800Z,20.34
2024-04-05T00:09:56.902Z,20.34
2024-04-05T00:10:56.945Z,20.33
2024-04-05T00:11:57.037Z,20.33
2024-04-05T00:13:01.673Z,20.33
2024-04-05T00:13:57.188Z,20.32
2024-04-05T00:14:57.390Z,20.31
2024-04-05T00:15:57.375Z,20.31
2024-04-05T00:16:57.457Z,20.31
2024-04-05T00:17:57.547Z,20.32
2024-04-05T00:18:57.644Z,20.32
2024-04-05T00:19:57.716Z,20.33
2024-04-05T00:20:57.797Z,20.33
2024-04-05T00:21:57.908Z,20.32
2024-04-05T00:22:57.959Z,20.32
2024-04-05T00:23:58.042Z,20.32
2024-04-05T00:24:58.130Z,20.32
2024-04-05T00:25:58.208Z,20.32
2024-04-05T00:26:58.292Z,20.32
2024-04-05T00:27:58.395Z,20.32
2024-04-05T00:28:58.462Z,20.32
2024-04-05T00:29:58.546Z,20.32
2024-04-05T00:30:58.616Z,20.32
2024-04-05T00:31:58.688Z,20.32
2024-04-05T00:32:58.769Z,20.32
2024-04-05T00:33:58.859Z,20.32
2024-04-05T00:34:58.941Z,20.32
2024-04-05T00:35:59.040Z,20.32
2024-04-05T00:36:59.117Z,20.32
2024-04-05T00:37:59.235Z,20.32
2024-04-05T00:38:59.317Z,20.32
2024-04-05T00:39:59.362Z,20.33
2024-04-05T00:40:59.448Z,20.33
2024-04-05T00:41:59.525Z,20.33
2024-04-05T00:42:59.597Z,20.33
2024-04-05T00:43:59.669Z,20.33
2024-04-05T00:44:59.765Z,20.32
2024-04-05T00:45:59.824Z,20.32
2024-04-05T00:46:59.887Z,20.32
2024-04-05T00:47:59.970Z,20.33
2024-04-05T00:49:00.056Z,20.33
2024-04-05T00:50:00.171Z,20.33
2024-04-05T00:51:00.214Z,20.33
2024-04-05T00:52:00.279Z,20.32
2024-04-05T00:53:00.374Z,20.32
2024-04-05T00:54:00.454Z,20.32
2024-04-05T00:55:00.537Z,20.32
2024-04-05T00:56:00.649Z,20.32
2024-04-05T00:57:00.679Z,20.32
2024-04-05T00:58:00.753Z,20.32
2024-04-05T00:59:00.840Z,20.32
2024-04-05T01:00:00.917Z,20.32
2024-04-05T01:01:01.015Z,20.32
2024-04-05T01:02:01.083Z,20.31
2024-04-05T01:03:01.168Z,20.31
2024-04-05T01:04:01.252Z,20.31
2024-04-05T01:05:01.340Z,20.31
2024-04-05T01:06:01.439Z,20.31
2024-04-05T01:07:01.548Z,20.30
2024-04-05T01:08:01.598Z,20.30
2024-04-05T01:09:01.723Z,20.30
2024-04-05T01:10:01.775Z,20.30
2024-04-05T01:11:01.867Z,20.30
2024-04-05T01:12:01.969Z,20.30
2024-04-05T01:13:02.039Z,20.30
2024-04-05T01:14:02.119Z,20.30
2024-04-05T01:15:02.205Z,20.30
2024-04-05T01:16:02.288Z,20.30
2024-04-05T01:17:02.362Z,20.30
2024-04-05T01:18:02.446Z,20.30
2024-04-05T01:19:02.539Z,20.30
2024-04-05T01:20:02.602Z,20.30
2024-04-05T01:21:02.684Z,20.31
2024-04-05T01:22:02.762Z,20.31
2024-04-05T01:23:02.855Z,20.31
2024-04-05T01:24:03.068Z,20.30
2024-04-05T01:25:03.028Z,20.30
2024-04-05T01:26:03.106Z,20.30
2024-04-05T01:27:03.188Z,20.30
2024-04-05T01:28:03.279Z,20.30
2024-04-05T01:29:03.367Z,20.30
2024-04-05T01:30:03.452Z,20.30
2024-04-05T01:31:03.536Z,20.30
2024-04-05T01:32:03.610Z,20.30
2024-04-05T01:33:03.682Z,20.30
2024-04-05T01:34:03.753Z,20.30
2024-04-05T01:35:03.841Z,20.29
2024-04-05T01:36:03.949Z,20.29
2024-04-05T01:37:04.011Z,20.29
2024-04-05T01:38:04.114Z,20.29
2024-04-05T01:39:04.175Z,20.30
2024-04-05T01:40:04.886Z,20.30
2024-04-05T01:41:04.327Z,20.29
2024-04-05T01:42:04.442Z,20.29
2024-04-05T01:43:04.538Z,20.28
2024-04-05T01:44:04.595Z,20.29
2024-04-05T01:45:04.681Z,20.29
2024-04-05T01:46:04.771Z,20.29
2024-04-05T01:47:04.854Z,20.29
2024-04-05T01:48:04.995Z,20.29
2024-04-05T01:49:04.999Z,20.29
2024-04-05T01:50:05.087Z,20.29
2024-04-05T01:51:05.151Z,20.29
2024-04-05T01:52:05.223Z,20.29
2024-04-05T01:53:05.308Z,20.29
2024-04-05T01:54:05.403Z,20.29
2024-04-05T01:55:05.462Z,20.29
2024-04-05T01:56:05.547Z,20.29
2024-04-05T01:57:05.632Z,20.28
2024-04-05T01:58:05.723Z,20.29
2024-04-05T01:59:05.808Z,20.29
2024-04-05T02:00:05.874Z,20.29
2024-04-05T02:01:05.963Z,20.29
2024-04-05T02:02:06.056Z,20.29
2024-04-05T02:03:06.139Z,20.29
2024-04-05T02:04:06.223Z,20.29
2024-04-05T02:05:06.317Z,20.29
2024-04-05T02:06:06.399Z,20.28
2024-04-05T02:07:06.466Z,20.28
2024-04-05T02:08:06.558Z,20.28
2024-04-05T02:09:06.626Z,20.29
2024-04-05T02:10:06.741Z,20.29
2024-04-05T02:11:06.804Z,20.29
2024-04-05T02:12:06.900Z,20.29
2024-04-05T02:13:06.957Z,20.29
2024-04-05T02:14:07.060Z,20.28
2024-04-05T02:15:07.141Z,20.28
2024-04-05T02:16:07.216Z,20.28
2024-04-05T02:17:07.320Z,20.28
2024-04-05T02:18:07.418Z,20.28
2024-04-05T02:19:07.479Z,20.28
2024-04-05T02:20:07.578Z,20.28
2024-04-05T02:21:07.640Z,20.28
2024-04-05T02:22:07.703Z,20.28
2024-04-05T02:23:07.781Z,20.28
2024-04-05T02:24:07.983Z,20.28
2024-04-05T02:25:07.952Z,20.27
2024-04-05T02:26:08.038Z,20.27
2024-04-05T02:27:08.110Z,20.27
2024-04-05T02:28:08.169Z,20.26
2024-04-05T02:29:08.265Z,20.26
2024-04-05T02:30:08.354Z,20.26
2024-04-05T02:31:08.438Z,20.26
2024-04-05T02:32:08.522Z,20.26
2024-04-05T02:33:08.584Z,20.26
2024-04-05T02:34:08.670Z,20.26
2024-04-05T02:35:08.761Z,20.26
2024-04-05T02:36:08.866Z,20.26
2024-04-05T02:37:08.922Z,20.26
2024-04-05T02:38:08.999Z,20.26
2024-04-05T02:39:09.073Z,20.26
2024-04-05T02:40:09.152Z,20.26
2024-04-05T02:41:09.279Z,20.26
2024-04-05T02:42:09.332Z,20.26
2024-04-05T02:43:09.437Z,20.26
2024-04-05T02:44:09.524Z,20.26
2024-04-05T02:45:09.557Z,20.27
2024-04-05T02:46:09.642Z,20.27
2024-04-05T02:47:09.767Z,20.26
2024-04-05T02:48:09.807Z,20.26
2024-04-05T02:49:09.882Z,20.26
2024-04-05T02:50:09.964Z,20.26
2024-04-05T02:51:10.052Z,20.26
2024-04-05T02:52:10.150Z,20.27
2024-04-05T02:53:10.188Z,20.27
2024-04-05T02:54:10.263Z,20.27
2024-04-05T02:55:10.330Z,20.26
2024-04-05T02:56:10.400Z,20.26
2024-04-05T02:57:10.482Z,20.26
2024-04-05T02:58:10.577Z,20.25
2024-04-05T02:59:10.649Z,20.25
2024-04-05T03:00:10.726Z,20.25
2024-04-05T03:01:10.871Z,20.25
2024-04-05T03:02:10.900Z,20.25
2024-04-05T03:03:11.027Z,20.25
2024-04-05T03:04:11.064Z,20.25
2024-04-05T03:05:11.141Z,20.25
2024-04-05T03:06:11.228Z,20.25
2024-04-05T03:07:11.308Z,20.25
2024-04-05T03:08:11.387Z,20.25
2024-04-05T03:09:11.484Z,20.25
2024-04-05T03:10:11.582Z,20.25
2024-04-05T03:11:11.678Z,20.25
2024-04-05T03:12:11.720Z,20.25
2024-04-05T03:13:11.807Z,20.25
2024-04-05T03:14:11.895Z,20.25
2024-04-05T03:15:11.945Z,20.25
2024-04-05T03:17:26.899Z,21.25
2024-04-05T03:18:29.420Z,20.80
2024-04-05T03:19:28.031Z,20.52
2024-04-05T03:20:28.125Z,20.37
2024-04-05T03:21:28.199Z,20.30
2024-04-05T03:22:28.267Z,20.26
2024-04-05T03:23:28.349Z,20.25
2024-04-05T03:24:28.431Z,20.24
2024-04-05T03:25:28.532Z,20.24
2024-04-05T03:26:28.572Z,20.24
2024-04-05T03:27:28.649Z,20.24
2024-04-05T03:28:28.763Z,20.24
2024-04-05T03:29:28.802Z,20.24
2024-04-05T03:30:28.909Z,20.24
2024-04-05T03:31:28.954Z,20.24
2024-04-05T03:32:29.034Z,20.24
2024-04-05T03:33:29.126Z,20.24
2024-04-05T03:34:29.198Z,20.24
2024-04-05T03:35:29.294Z,20.24
2024-04-05T03:36:29.390Z,20.24
2024-04-05T03:37:29.453Z,20.23
2024-04-05T03:38:29.530Z,20.24
2024-04-05T03:39:29.614Z,20.24
2024-04-05T03:40:29.712Z,20.24
2024-04-05T03:41:29.775Z,20.24
2024-04-05T03:42:29.884Z,20.24
2024-04-05T03:43:29.927Z,20.24
2024-04-05T03:44:30.003Z,20.24
2024-04-05T03:45:30.075Z,20.24
2024-04-05T03:46:30.160Z,20.24
2024-04-05T03:47:30.240Z,20.24
2024-04-05T03:48:30.501Z,20.24
2024-04-05T03:49:30.398Z,20.24
2024-04-05T03:50:30.482Z,20.24
2024-04-05T03:51:30.566Z,20.24
2024-04-05T03:52:30.656Z,20.25
2024-04-05T03:53:30.733Z,20.25
2024-04-05T03:54:30.821Z,20.25
2024-04-05T03:55:30.900Z,20.24
2024-04-05T03:56:30.959Z,20.24
2024-04-05T03:57:31.115Z,20.24
2024-04-05T03:58:31.144Z,20.24
2024-04-05T03:59:31.348Z,20.24
2024-04-05T04:00:31.314Z,20.24
2024-04-05T04:01:31.384Z,20.24
2024-04-05T04:02:31.474Z,20.24
2024-04-05T04:03:31.551Z,20.24
2024-04-05T04:04:31.635Z,20.23
2024-04-05T04:05:31.739Z,20.23
2024-04-05T04:06:31.818Z,20.23
2024-04-05T04:07:31.911Z,20.23
2024-04-05T04:08:31.998Z,20.23
2024-04-05T04:09:34.650Z,20.23
2024-04-05T04:10:32.159Z,20.23
2024-04-05T04:11:32.225Z,20.23
2024-04-05T04:12:32.307Z,20.22
2024-04-05T04:13:32.390Z,20.22
2024-04-05T04:14:32.460Z,20.22
2024-04-05T04:15:32.539Z,20.22
2024-04-05T04:16:32.646Z,20.22
2024-04-05T04:17:32.721Z,20.22
2024-04-05T04:18:32.804Z,20.22
2024-04-05T04:19:32.875Z,20.22
2024-04-05T04:20:32.959Z,20.22
2024-04-05T04:21:33.048Z,20.22
2024-04-05T04:22:33.121Z,20.22
2024-04-05T04:23:33.208Z,20.22
2024-04-05T04:24:33.283Z,20.22
2024-04-05T04:25:33.362Z,20.22
2024-04-05T04:26:33.435Z,20.22
2024-04-05T04:27:33.646Z,20.22
2024-04-05T04:28:33.603Z,20.22
2024-04-05T04:29:33.680Z,20.23
2024-04-05T04:30:33.751Z,20.23
2024-04-05T04:31:33.836Z,20.23
2024-04-05T04:32:33.946Z,20.22
2024-04-05T04:33:34.015Z,20.22
2024-04-05T04:34:34.101Z,20.22
2024-04-05T04:35:34.168Z,20.22
2024-04-05T04:36:34.323Z,20.22
2024-04-05T04:37:34.384Z,20.23
2024-04-05T04:38:34.401Z,20.23
2024-04-05T04:39:34.463Z,20.23
2024-04-05T04:40:34.552Z,20.22
2024-04-05T04:41:34.625Z,20.22
2024-04-05T04:42:34.703Z,20.22
2024-04-05T04:43:34.782Z,20.22
2024-04-05T04:44:34.879Z,20.22
2024-04-05T04:45:34.962Z,20.22
2024-04-05T04:46:35.060Z,20.22
2024-04-05T04:47:35.231Z,20.22
2024-04-05T04:48:35.219Z,20.22
2024-04-05T04:49:35.309Z,20.23
2024-04-05T04:50:35.440Z,20.23
2024-04-05T04:51:35.503Z,20.23
2024-04-05T04:52:35.567Z,20.22
2024-04-05T04:53:35.652Z,20.22
2024-04-05T04:54:35.726Z,20.22
2024-04-05T04:55:37.261Z,20.22
2024-04-05T04:56:35.882Z,20.22
2024-04-05T04:57:35.962Z,20.22
2024-04-05T04:58:36.047Z,20.23
2024-04-05T04:59:36.121Z,20.23
2024-04-05T05:00:36.229Z,20.22
2024-04-05T05:01:36.310Z,20.22
2024-04-05T05:02:36.410Z,20.22
2024-04-05T05:03:36.459Z,20.22
2024-04-05T05:04:36.547Z,20.22
2024-04-05T05:05:36.624Z,20.22
2024-04-05T05:06:36.701Z,20.23
2024-04-05T05:07:36.788Z,20.23
2024-04-05T05:08:36.986Z,20.23
2024-04-05T05:09:36.960Z,20.23
2024-04-05T05:10:37.046Z,20.23
2024-04-05T05:11:37.123Z,20.23
2024-04-05T05:12:37.210Z,20.23
2024-04-05T05:13:37.326Z,20.23
2024-04-05T05:14:37.383Z,20.23
2024-04-05T05:15:37.457Z,20.23
2024-04-05T05:16:37.587Z,20.23
2024-04-05T05:17:37.628Z,20.23
2024-04-05T05:18:37.699Z,20.23
2024-04-05T05:19:37.762Z,20.23
2024-04-05T05:20:37.868Z,20.24
2024-04-05T05:21:37.914Z,20.23
2024-04-05T05:22:38.008Z,20.23
2024-04-05T05:23:38.075Z,20.23
2024-04-05T05:24:38.154Z,20.24
2024-04-05T05:25:38.304Z,20.24
2024-04-05T05:26:38.318Z,20.25
2024-04-05T05:27:38.400Z,20.26
2024-04-05T05:28:38.516Z,20.26
2024-04-05T05:29:38.557Z,20.26
2024-04-05T05:30:38.661Z,20.26
2024-04-05T05:31:38.777Z,20.26
2024-04-05T05:32:38.855Z,20.26
2024-04-05T05:33:38.917Z,20.26
2024-04-05T05:34:39.000Z,20.26
2024-04-05T05:35:39.070Z,20.27
2024-04-05T05:36:39.166Z,20.27
2024-04-05T05:37:39.805Z,20.26
2024-04-05T05:38:39.287Z,20.26
2024-04-05T05:39:39.374Z,20.27
2024-04-05T05:40:39.450Z,20.27
2024-04-05T05:41:39.542Z,20.27
2024-04-05T05:42:39.738Z,20.27
2024-04-05T05:43:39.695Z,20.27
2024-04-05T05:44:39.776Z,20.27
2024-04-05T05:45:42.131Z,20.27
2024-04-05T05:46:39.963Z,20.28
2024-04-05T05:47:40.049Z,20.28
2024-04-05T05:48:40.119Z,20.28
2024-04-05T05:49:40.201Z,20.28
2024-04-05T05:50:40.289Z,20.29
2024-04-05T05:51:40.370Z,20.29
2024-04-05T05:52:40.517Z,20.28
2024-04-05T05:53:40.509Z,20.28
2024-04-05T05:54:40.551Z,20.28
2024-04-05T05:55:40.621Z,20.28
2024-04-05T05:56:40.695Z,20.28
2024-04-05T05:57:40.781Z,20.29
2024-04-05T05:58:40.857Z,20.29
2024-04-05T05:59:40.970Z,20.29
2024-04-05T06:00:41.008Z,20.29
2024-04-05T06:01:41.106Z,20.29
2024-04-05T06:02:41.165Z,20.29
2024-04-05T06:03:41.243Z,20.29
2024-04-05T06:04:41.337Z,20.30
2024-04-05T06:05:41.539Z,20.30
2024-04-05T06:06:41.505Z,20.30
2024-04-05T06:07:41.584Z,20.30
2024-04-05T06:08:41.668Z,20.30
2024-04-05T06:09:41.764Z,20.30
2024-04-05T06:10:41.846Z,20.30
2024-04-05T06:11:41.948Z,20.30
2024-04-05T06:12:42.006Z,20.30
2024-04-05T06:13:42.079Z,20.31
2024-04-05T06:14:42.189Z,20.31
2024-04-05T06:15:42.227Z,20.31
2024-04-05T06:16:42.313Z,20.32
2024-04-05T06:17:42.398Z,20.32
2024-04-05T06:18:42.525Z,20.32
2024-04-05T06:19:42.567Z,20.32
2024-04-05T06:20:42.647Z,20.32
2024-04-05T06:21:42.726Z,20.32
2024-04-05T06:22:42.810Z,20.32
2024-04-05T06:23:42.895Z,20.32
2024-04-05T06:24:42.970Z,20.32
2024-04-05T06:25:43.060Z,20.31
2024-04-05T06:26:43.131Z,20.31
2024-04-05T06:27:43.205Z,20.32
2024-04-05T06:28:43.295Z,20.32
2024-04-05T06:29:43.393Z,20.32
2024-04-05T06:30:43.469Z,20.33
2024-04-05T06:31:43.564Z,20.33
2024-04-05T06:32:43.632Z,20.33
2024-04-05T06:33:43.698Z,20.33
2024-04-05T06:34:43.773Z,20.33
2024-04-05T06:35:43.867Z,20.33
2024-04-05T06:36:43.919Z,20.33
2024-04-05T06:37:44.003Z,20.33
2024-04-05T06:38:44.078Z,20.34
2024-04-05T06:39:44.154Z,20.34
2024-04-05T06:40:44.276Z,20.34
2024-04-05T06:41:44.290Z,20.35
2024-04-05T06:42:44.368Z,20.35
2024-04-05T06:43:44.469Z,20.36
2024-04-05T06:44:44.521Z,20.36
2024-04-05T06:45:44.605Z,20.36
2024-04-05T06:46:44.836Z,20.36
2024-04-05T06:47:44.783Z,20.36
2024-04-05T06:48:44.873Z,20.36
2024-04-05T06:49:45.042Z,20.36
2024-04-05T06:50:45.020Z,20.35
2024-04-05T06:51:45.112Z,20.35
2024-04-05T06:52:45.194Z,20.36
2024-04-05T06:53:45.258Z,20.36
2024-04-05T06:54:45.331Z,20.37
2024-04-05T06:55:45.458Z,20.37
2024-04-05T06:56:45.506Z,20.37
2024-04-05T06:57:45.613Z,20.38
2024-04-05T06:58:45.704Z,20.37
2024-04-05T06:59:45.774Z,20.37
2024-04-05T07:00:45.837Z,20.38
2024-04-05T07:01:45.910Z,20.38
2024-04-05T07:02:45.995Z,20.38
2024-04-05T07:03:46.077Z,20.37
2024-04-05T07:04:46.152Z,20.38
2024-04-05T07:05:46.241Z,20.38
2024-04-05T07:06:46.322Z,20.38
2024-04-05T07:07:46.435Z,20.38
2024-04-05T07:08:46.506Z,20.39
2024-04-05T07:09:46.547Z,20.38
2024-04-05T07:10:50.224Z,20.38
2024-04-05T07:11:46.737Z,20.36
2024-04-05T07:12:46.823Z,20.35
2024-04-05T07:13:46.921Z,20.35
2024-04-05T07:14:47.023Z,20.34
2024-04-05T07:15:47.061Z,20.35
2024-04-05T07:16:47.176Z,20.35
2024-04-05T07:17:47.240Z,20.36
2024-04-05T07:18:47.330Z,20.36
2024-04-05T07:19:47.450Z,20.36
2024-04-05T07:20:47.486Z,20.35
2024-04-05T07:21:47.570Z,20.34
2024-04-05T07:22:47.743Z,20.34
2024-04-05T07:23:47.732Z,20.33
2024-04-05T07:24:47.819Z,20.34
2024-04-05T07:25:47.910Z,20.34
2024-04-05T07:26:47.982Z,20.34
2024-04-05T07:27:48.055Z,20.34
2024-04-05T07:28:48.144Z,20.35
2024-04-05T07:29:48.211Z,20.35
2024-04-05T07:30:48.298Z,20.36
2024-04-05T07:31:48.518Z,20.36
2024-04-05T07:32:48.460Z,20.37
2024-04-05T07:33:48.554Z,20.37
2024-04-05T07:34:48.709Z,20.37
2024-04-05T07:35:48.734Z,20.37
2024-04-05T07:36:48.813Z,20.37
2024-04-05T07:37:48.941Z,20.37
2024-04-05T07:38:48.971Z,20.38
2024-04-05T07:39:49.049Z,20.38
2024-04-05T07:40:49.134Z,20.38
2024-04-05T07:41:49.212Z,20.38
2024-04-05T07:42:50.586Z,20.38
2024-04-05T07:43:49.437Z,20.38
2024-04-05T07:44:49.472Z,20.38
2024-04-05T07:45:49.547Z,20.38
2024-04-05T07:46:49.662Z,20.38
2024-04-05T07:47:49.715Z,20.39
2024-04-05T07:48:51.845Z,20.39
2024-04-05T07:49:49.969Z,20.39
2024-04-05T07:50:49.951Z,20.39
2024-04-05T07:51:50.033Z,20.40
2024-04-05T07:52:50.144Z,20.40
2024-04-05T07:53:50.168Z,20.40
2024-04-05T07:54:50.399Z,20.41
2024-04-05T07:55:50.366Z,20.42
2024-04-05T07:56:56.138Z,20.43
2024-04-05T07:57:50.481Z,20.43
2024-04-05T07:58:50.571Z,20.44
2024-04-05T07:59:50.645Z,20.45
2024-04-05T08:00:50.736Z,20.45
2024-04-05T08:01:50.903Z,20.45
2024-04-05T08:02:50.898Z,20.45
2024-04-05T08:03:50.985Z,20.45
2024-04-05T08:04:51.116Z,20.45
2024-04-05T08:05:51.161Z,20.46
2024-04-05T08:06:53.838Z,20.46
2024-04-05T08:07:51.317Z,20.46
2024-04-05T08:08:51.381Z,20.46
2024-04-05T08:09:51.477Z,20.46
2024-04-05T08:10:51.575Z,20.46
2024-04-05T08:11:51.645Z,20.46
2024-04-05T08:12:51.735Z,20.46
2024-04-05T08:13:51.839Z,20.47
2024-04-05T08:14:51.895Z,20.48
2024-04-05T08:15:51.988Z,20.48
2024-04-05T08:16:52.084Z,20.49
2024-04-05T08:17:52.170Z,20.49
2024-04-05T08:18:54.791Z,20.50
2024-04-05T08:19:52.295Z,20.50
2024-04-05T08:20:52.405Z,20.50
2024-04-05T08:21:52.487Z,20.50
2024-04-05T08:22:52.525Z,20.51
2024-04-05T08:23:52.615Z,20.52
2024-04-05T08:24:55.679Z,20.52
2024-04-05T08:25:52.816Z,20.52
2024-04-05T08:26:52.850Z,20.53
2024-04-05T08:27:52.929Z,20.53
2024-04-05T08:28:53.065Z,20.53
2024-04-05T08:29:53.085Z,20.53
2024-04-05T08:30:55.392Z,20.53
2024-04-05T08:31:53.244Z,20.54
2024-04-05T08:32:53.321Z,20.54
2024-04-05T08:33:53.412Z,20.53
2024-04-05T08:34:53.515Z,20.53
2024-04-05T08:35:53.592Z,20.54
2024-04-05T08:36:55.720Z,20.54
2024-04-05T08:37:53.824Z,20.54
2024-04-05T08:38:53.834Z,20.55
2024-04-05T08:39:53.934Z,20.55
2024-04-05T08:40:54.006Z,20.55
2024-04-05T08:41:54.049Z,20.55
2024-04-05T08:42:54.177Z,20.55
2024-04-05T08:43:54.279Z,20.55
2024-04-05T08:44:54.326Z,20.55
2024-04-05T08:45:54.544Z,20.55
2024-04-05T08:46:54.472Z,20.55
2024-04-05T08:47:54.570Z,20.55
2024-04-05T08:48:54.652Z,20.55
2024-04-05T08:49:54.739Z,20.55
2024-04-05T08:50:54.807Z,20.55
2024-04-05T08:51:55.016Z,20.56
2024-04-05T08:52:55.039Z,20.55
2024-04-05T08:53:55.074Z,20.54
2024-04-05T08:54:55.158Z,20.53
2024-04-05T08:55:55.265Z,20.52
2024-04-05T08:56:55.318Z,20.51
2024-04-05T08:57:55.426Z,20.51
2024-04-05T08:58:55.491Z,20.51
2024-04-05T08:59:55.552Z,20.50
2024-04-05T09:00:55.628Z,20.50
2024-04-05T09:01:55.745Z,20.50
2024-04-05T09:02:55.789Z,20.49
2024-04-05T09:03:55.898Z,20.49
2024-04-05T09:04:55.994Z,20.49
2024-04-05T09:05:56.017Z,20.49
2024-04-05T09:06:56.096Z,20.50
2024-04-05T09:07:56.243Z,20.50
2024-04-05T09:08:56.274Z,20.50
2024-04-05T09:09:59.307Z,20.49
2024-04-05T09:10:56.511Z,20.49
2024-04-05T09:11:56.515Z,20.49
2024-04-05T09:12:56.602Z,20.50
2024-04-05T09:13:56.719Z,20.50
2024-04-05T09:14:56.767Z,20.51
2024-04-05T09:15:56.861Z,20.51
2024-04-05T09:16:56.966Z,20.51
2024-04-05T09:17:56.997Z,20.51
2024-04-05T09:18:57.131Z,20.51
2024-04-05T09:19:57.199Z,20.51
2024-04-05T09:20:57.271Z,20.51
2024-04-05T09:21:57.338Z,20.51
2024-04-05T09:22:57.526Z,20.52
2024-04-05T09:23:57.545Z,20.52
2024-04-05T09:24:57.607Z,20.52
2024-04-05T09:25:57.728Z,20.53
2024-04-05T09:26:57.910Z,20.53
2024-04-05T09:27:57.873Z,20.53
2024-04-05T09:28:57.983Z,20.54
2024-04-05T09:29:58.010Z,20.54
2024-04-05T09:30:58.087Z,20.54
2024-04-05T09:31:58.208Z,20.55
2024-04-05T09:32:58.264Z,20.55
2024-04-05T09:33:58.314Z,20.55
2024-04-05T09:34:58.470Z,20.55
2024-04-05T09:35:58.480Z,20.55
2024-04-05T09:36:58.563Z,20.54
2024-04-05T09:37:58.701Z,20.54
2024-04-05T09:38:58.744Z,20.55
2024-04-05T09:39:58.830Z,20.55
2024-04-05T09:40:58.939Z,20.55
2024-04-05T09:41:59.006Z,20.55
2024-04-05T09:42:59.089Z,20.55
2024-04-05T09:44:07.760Z,20.55
2024-04-05T09:44:59.253Z,20.55
2024-04-05T09:45:59.339Z,20.55
2024-04-05T09:46:59.515Z,20.55
2024-04-05T09:47:59.508Z,20.55
2024-04-05T09:48:59.581Z,20.55
2024-04-05T09:49:59.750Z,20.55
2024-04-05T09:50:59.760Z,20.56
2024-04-05T09:51:59.803Z,20.55
2024-04-05T09:52:59.923Z,20.55
2024-04-05T09:53:59.968Z,20.55
2024-04-05T09:55:00.101Z,20.56
2024-04-05T09:56:00.179Z,20.56
2024-04-05T09:57:00.191Z,20.57
2024-04-05T09:58:00.268Z,20.57
2024-04-05T09:59:00.353Z,20.56
2024-04-05T10:00:00.448Z,20.56
2024-04-05T10:01:00.515Z,20.57
2024-04-05T10:02:00.657Z,20.57
2024-04-05T10:03:00.692Z,20.58
2024-04-05T10:04:00.790Z,20.58
2024-04-05T10:05:00.879Z,20.58
2024-04-05T10:06:00.954Z,20.58
2024-04-05T10:07:01.042Z,20.58
2024-04-05T10:08:01.100Z,20.58
2024-04-05T10:09:01.169Z,20.58
2024-04-05T10:10:01.257Z,20.58
2024-04-05T10:11:01.394Z,20.58
2024-04-05T10:12:01.522Z,20.58
2024-04-05T10:13:01.505Z,20.58
2024-04-05T10:14:01.642Z,20.58
2024-04-05T10:15:01.652Z,20.58
2024-04-05T10:16:01.741Z,20.57
2024-04-05T10:17:01.828Z,20.57
2024-04-05T10:18:01.903Z,20.57
2024-04-05T10:19:01.936Z,20.57
2024-04-05T10:20:02.074Z,20.57
2024-04-05T10:21:02.098Z,20.58
2024-04-05T10:22:02.185Z,20.58
2024-04-05T10:23:02.321Z,20.58
2024-04-05T10:24:02.346Z,20.57
2024-04-05T10:25:02.385Z,20.57
2024-04-05T10:26:02.468Z,20.57
2024-04-05T10:27:02.573Z,20.57
2024-04-05T10:28:02.634Z,20.57
2024-04-05T10:29:02.720Z,20.57
2024-04-05T10:30:02.815Z,20.57
2024-04-05T10:31:02.898Z,20.58
2024-04-05T10:32:03.000Z,20.58
2024-04-05T10:33:03.051Z,20.59
2024-04-05T10:34:03.147Z,20.59
2024-04-05T10:35:03.252Z,20.59
2024-04-05T10:36:03.321Z,20.60
2024-04-05T10:37:03.387Z,20.60
2024-04-05T10:38:14.498Z,20.60
2024-04-05T10:39:03.550Z,20.60
2024-04-05T10:40:03.623Z,20.60
2024-04-05T10:41:03.827Z,20.60
2024-04-05T10:42:03.767Z,20.60
2024-04-05T10:43:03.847Z,20.60
2024-04-05T10:44:03.999Z,20.61
2024-04-05T10:45:04.038Z,20.62
2024-04-05T10:46:04.139Z,20.62
2024-04-05T10:47:05.278Z,20.62
2024-04-05T10:48:04.310Z,20.62
2024-04-05T10:49:04.378Z,20.63
2024-04-05T10:50:04.482Z,20.63
2024-04-05T10:51:04.559Z,20.63
2024-04-05T10:52:04.666Z,20.63
2024-04-05T10:53:04.709Z,20.63
2024-04-05T10:54:04.810Z,20.63
2024-04-05T10:55:04.893Z,20.63
2024-04-05T10:56:04.982Z,20.63
2024-04-05T10:57:05.070Z,20.63
2024-04-05T10:58:05.146Z,20.63
2024-04-05T10:59:06.833Z,20.62
2024-04-05T11:00:05.322Z,20.62
2024-04-05T11:01:05.384Z,20.62
2024-04-05T11:02:05.443Z,20.62
2024-04-05T11:03:05.573Z,20.62
2024-04-05T11:04:05.602Z,20.63
2024-04-05T11:05:05.675Z,20.63
2024-04-05T11:06:05.747Z,20.63
2024-04-05T11:07:05.852Z,20.63
2024-04-05T11:08:05.954Z,20.64
2024-04-05T11:09:06.003Z,20.64
2024-04-05T11:10:10.991Z,20.64
2024-04-05T11:11:06.161Z,20.64
2024-04-05T11:12:06.256Z,20.64
2024-04-05T11:13:06.355Z,20.64
2024-04-05T11:14:06.462Z,20.64
2024-04-05T11:15:06.544Z,20.64
2024-04-05T11:16:06.656Z,20.64
2024-04-05T11:17:06.830Z,20.63
2024-04-05T11:18:06.855Z,20.63
2024-04-05T11:19:07.003Z,20.64
2024-04-05T11:20:06.984Z,20.64
2024-04-05T11:21:07.130Z,20.65
2024-04-05T11:22:07.153Z,20.65
2024-04-05T11:23:07.224Z,20.66
2024-04-05T11:24:07.300Z,20.66
2024-04-05T11:25:07.496Z,20.66
2024-04-05T11:26:07.469Z,20.66
2024-04-05T11:27:13.553Z,20.66
2024-04-05T11:28:07.625Z,20.66
2024-04-05T11:29:09.198Z,20.66
2024-04-05T11:30:07.800Z,20.66
2024-04-05T11:31:07.923Z,20.65
2024-04-05T11:32:07.969Z,20.65
2024-04-05T11:33:08.046Z,20.65
2024-04-05T11:34:08.133Z,20.65
2024-04-05T11:35:08.215Z,20.65
2024-04-05T11:36:08.312Z,20.65
2024-04-05T11:37:08.381Z,20.65
2024-04-05T11:38:08.459Z,20.66
2024-04-05T11:39:08.547Z,20.66
2024-04-05T11:40:08.621Z,20.66
2024-04-05T11:41:08.722Z,20.66
2024-04-05T11:42:08.788Z,20.66
2024-04-05T11:43:08.865Z,20.66
2024-04-05T11:44:08.948Z,20.67
2024-04-05T11:45:09.053Z,20.67
2024-04-05T11:46:09.147Z,20.67
2024-04-05T11:47:09.157Z,20.67
2024-04-05T11:48:09.283Z,20.66
2024-04-05T11:49:09.359Z,20.66
2024-04-05T11:50:09.406Z,20.66
2024-04-05T11:51:09.502Z,20.66
2024-04-05T11:52:09.591Z,20.67
2024-04-05T11:53:09.667Z,20.67
2024-04-05T11:54:09.767Z,20.67
2024-04-05T11:55:09.877Z,20.68
2024-04-05T11:56:09.967Z,20.68
2024-04-05T11:57:10.000Z,20.68
2024-04-05T11:58:10.072Z,20.68
2024-04-05T11:59:10.158Z,20.68
2024-04-05T12:00:10.258Z,20.68
2024-04-05T12:01:10.340Z,20.68
2024-04-05T12:02:10.459Z,20.68
2024-04-05T12:03:10.503Z,20.68
2024-04-05T12:04:10.590Z,20.68
2024-04-05T12:05:10.691Z,20.68
2024-04-05T12:06:10.763Z,20.68
2024-04-05T12:07:10.828Z,20.68
2024-04-05T12:08:13.381Z,20.68
2024-04-05T12:09:10.989Z,20.68
2024-04-05T12:10:11.100Z,20.68
2024-04-05T12:11:11.160Z,20.67
2024-04-05T12:12:11.311Z,20.67
2024-04-05T12:13:11.329Z,20.67
2024-04-05T12:14:14.593Z,20.67
2024-04-05T12:15:11.510Z,20.67
2024-04-05T12:16:11.599Z,20.67
2024-04-05T12:17:11.732Z,20.66
2024-04-05T12:18:11.738Z,20.66
2024-04-05T12:19:11.808Z,20.67
2024-04-05T12:20:12.788Z,20.67
2024-04-05T12:21:12.124Z,20.67
2024-04-05T12:22:12.058Z,20.67
2024-04-05T12:23:12.130Z,20.67
2024-04-05T12:24:12.215Z,20.67
2024-04-05T12:25:12.326Z,20.68
2024-04-05T12:26:14.089Z,20.69
2024-04-05T12:27:16.891Z,20.69
2024-04-05T12:28:12.571Z,20.69
2024-04-05T12:29:12.641Z,20.69
2024-04-05T12:30:12.731Z,20.69
2024-04-05T12:31:12.827Z,20.69
2024-04-05T12:32:12.904Z,20.70
2024-04-05T12:33:12.964Z,20.70
2024-04-05T12:34:13.063Z,20.70
2024-04-05T12:35:13.137Z,20.70
2024-04-05T12:36:13.212Z,20.70
2024-04-05T12:37:13.290Z,20.70
2024-04-05T12:38:30.709Z,20.70
2024-04-05T12:39:13.448Z,20.69
2024-04-05T12:40:13.532Z,20.70
2024-04-05T12:41:13.639Z,20.70
2024-04-05T12:42:13.719Z,20.70
2024-04-05T12:43:13.928Z,20.71
2024-04-05T12:44:13.896Z,20.71
2024-04-05T12:45:13.972Z,20.71
2024-04-05T12:46:14.058Z,20.72
2024-04-05T12:47:14.129Z,20.72
2024-04-05T12:48:14.222Z,20.72
2024-04-05T12:49:14.293Z,20.71
2024-04-05T12:50:15.729Z,20.71
2024-04-05T12:51:14.445Z,20.71
2024-04-05T12:52:14.534Z,20.72
2024-04-05T12:53:14.615Z,20.72
2024-04-05T12:54:14.851Z,20.73
2024-04-05T12:55:14.788Z,20.73